Time;durP1;ratioP1;P1;durP2;ratioP2;P2;SDS_P1;SDS_P2;PMS_P1;PMS_P2;Temp;Humidity;BMP_temperature;BMP_pressure;BME280_temperature;BME280_humidity;BME280_pressure;Samples;Min_cycle;Max_cycle;Signal;HPM_P1;HPM_P2
2022/09/07 00:02:28;;;;;;;9.90;4.30;;;;;;;10.97;43.58;100704.08;105857;1275;109010;-80
2022/09/07 00:05:00;;;;;;;13.00;4.90;;;;;;;10.92;43.76;100700.70;105728;1275;139676;-80
2022/09/07 00:07:32;;;;;;;8.20;4.10;;;;;;;10.88;43.90;100694.55;105885;1276;96505;-80
2022/09/07 00:10:05;;;;;;;8.80;4.40;;;;;;;10.84;44.06;100692.23;105895;1276;109444;-80
2022/09/07 00:12:36;;;;;;;9.80;4.60;;;;;;;10.80;44.15;100687.81;105925;1275;109056;-81
2022/09/07 00:15:11;;;;;;;9.00;4.30;;;;;;;10.78;44.25;100686.12;105918;1275;107947;-79
2022/09/07 00:17:43;;;;;;;7.90;4.30;;;;;;;10.75;44.46;100681.66;105717;1275;138592;-80
2022/09/07 00:20:15;;;;;;;8.40;4.60;;;;;;;10.72;44.70;100682.64;106006;1276;97058;-80
2022/09/07 00:22:47;;;;;;;7.50;4.50;;;;;;;10.68;44.74;100685.36;105787;1276;137858;-81
2022/09/07 00:25:19;;;;;;;8.10;4.40;;;;;;;10.65;44.92;100680.73;105845;1275;109013;-81
2022/09/07 00:27:51;;;;;;;9.80;4.10;;;;;;;10.61;44.90;100680.33;105844;1275;108511;-79
2022/09/07 00:30:23;;;;;;;8.30;4.10;;;;;;;10.58;45.00;100683.50;105637;1276;138988;-77
2022/09/07 00:32:55;;;;;;;9.00;4.70;;;;;;;10.56;45.01;100677.30;105882;1275;96513;-80
2022/09/07 00:35:27;;;;;;;6.90;3.90;;;;;;;10.53;45.21;100678.94;105735;1276;137693;-79
2022/09/07 00:37:59;;;;;;;8.10;4.00;;;;;;;10.51;45.24;100673.60;105829;1276;107887;-80
2022/09/07 00:40:31;;;;;;;8.40;4.30;;;;;;;10.49;45.28;100673.48;105785;1275;137846;-81
2022/09/07 00:43:03;;;;;;;7.00;4.40;;;;;;;10.46;45.39;100674.79;105901;1275;96496;-81
2022/09/07 00:45:35;;;;;;;10.80;4.10;;;;;;;10.42;45.52;100674.01;105938;1276;96514;-83
2022/09/07 00:48:12;;;;;;;6.90;4.10;;;;;;;10.39;45.58;100670.76;105726;1276;137757;-83
2022/09/07 00:50:47;;;;;;;7.60;4.30;;;;;;;10.38;45.60;100676.19;105878;1275;108916;-79
2022/09/07 00:53:23;;;;;;;9.40;4.50;;;;;;;10.35;45.84;100679.21;105724;1275;137686;-82
2022/09/07 00:55:56;;;;;;;10.20;4.50;;;;;;;10.32;45.88;100677.73;105867;1275;96486;-80
2022/09/07 00:58:30;;;;;;;8.40;4.30;;;;;;;10.28;45.89;100671.73;105739;1275;138024;-80
2022/09/07 01:01:03;;;;;;;7.70;4.00;;;;;;;10.24;46.08;100668.02;105900;1275;111127;-80
2022/09/07 01:03:40;;;;;;;10.40;4.20;;;;;;;10.22;46.07;100666.30;105825;1276;108939;-80
2022/09/07 01:06:16;;;;;;;6.30;4.40;;;;;;;10.19;46.25;100661.66;105710;1275;137833;-79
2022/09/07 01:08:50;;;;;;;6.40;4.30;;;;;;;10.16;46.32;100664.85;105860;1275;96497;-81
2022/09/07 01:11:23;;;;;;;9.70;4.10;;;;;;;10.13;46.45;100667.89;105763;1276;137874;-79
2022/09/07 01:13:56;;;;;;;7.90;4.10;;;;;;;10.11;46.47;100674.20;106488;1275;111273;-82
2022/09/07 01:16:41;;;;;;;7.10;4.10;;;;;;;10.09;46.64;100673.90;107434;1275;139055;-81
2022/09/07 01:19:35;;;;;;;6.90;4.00;;;;;;;10.06;46.69;100671.54;107496;1275;107900;-81
2022/09/07 01:22:28;;;;;;;9.30;4.80;;;;;;;10.02;46.88;100668.82;106516;1275;96577;-79
2022/09/07 01:25:07;;;;;;;8.60;4.30;;;;;;;9.99;47.00;100670.99;105864;1275;96536;-80
2022/09/07 01:28:05;;;;;;;7.50;4.00;;;;;;;9.96;47.01;100673.14;105906;1276;111365;-80
2022/09/07 01:30:40;;;;;;;10.80;4.60;;;;;;;9.93;47.17;100669.75;105934;1276;108348;-82
2022/09/07 01:33:28;;;;;;;9.50;4.50;;;;;;;9.90;47.23;100666.02;105927;1275;107814;-83
2022/09/07 01:36:11;;;;;;;10.00;4.30;;;;;;;9.86;47.31;100663.81;105741;1275;138070;-80
2022/09/07 01:38:46;;;;;;;8.10;4.40;;;;;;;9.83;47.39;100661.63;105903;1276;96926;-81
2022/09/07 01:41:38;;;;;;;8.00;4.50;;;;;;;9.81;47.58;100662.02;105715;1276;137342;-82
2022/09/07 01:44:16;;;;;;;7.60;4.00;;;;;;;9.79;47.83;100663.64;105766;1278;107786;-81
2022/09/07 01:46:56;;;;;;;8.80;4.00;;;;;;;9.77;47.73;100663.86;105681;1278;138119;-82
2022/09/07 01:49:35;;;;;;;8.90;4.50;;;;;;;9.75;47.80;100666.68;105897;1276;96590;-82
2022/09/07 01:52:11;;;;;;;7.20;4.00;;;;;;;9.73;47.95;100666.21;105699;1276;96518;-80
2022/09/07 01:54:49;;;;;;;7.20;4.30;;;;;;;9.72;47.94;100667.46;105881;1276;111155;-82
2022/09/07 01:57:27;;;;;;;8.10;3.90;;;;;;;9.69;48.07;100670.45;105859;1276;106855;-78
2022/09/07 02:00:07;;;;;;;6.60;4.20;;;;;;;9.67;48.09;100671.34;105768;1276;137812;-81
2022/09/07 02:02:51;;;;;;;9.60;4.10;;;;;;;9.66;48.06;100670.34;105887;1276;96516;-79
2022/09/07 02:05:27;;;;;;;9.20;4.10;;;;;;;9.63;48.23;100669.70;105737;1275;137305;-80
2022/09/07 02:08:06;;;;;;;8.50;3.70;;;;;;;9.61;48.23;100667.84;105903;1274;111196;-80
2022/09/07 02:10:40;;;;;;;6.90;3.90;;;;;;;9.59;48.36;100674.83;105712;1275;137997;-80
2022/09/07 02:13:17;;;;;;;7.70;4.30;;;;;;;9.57;48.45;100674.88;105922;1274;108987;-81
2022/09/07 02:15:50;;;;;;;;;;;;;;;9.55;48.51;100672.84;105942;1275;96583;-81
2022/09/07 02:18:24;;;;;;;8.90;4.00;;;;;;;9.51;48.54;100668.23;105772;1276;123927;-79
2022/09/07 02:20:59;;;;;;;10.70;4.10;;;;;;;9.48;48.68;100667.95;105890;1276;111027;-82
2022/09/07 02:23:37;;;;;;;6.30;4.10;;;;;;;9.46;48.77;100666.27;105827;1275;138555;-82
2022/09/07 02:26:15;;;;;;;6.30;4.10;;;;;;;9.44;48.78;100660.04;105906;1275;108510;-81
2022/09/07 02:28:47;;;;;;;6.70;4.20;;;;;;;9.43;48.99;100661.64;105788;1275;137870;-82
2022/09/07 02:31:19;;;;;;;7.80;3.90;;;;;;;9.41;48.95;100660.13;106531;1276;94944;-82
2022/09/07 02:33:51;;;;;;;8.30;3.90;;;;;;;9.38;49.09;100657.58;107060;1274;109539;-82
2022/09/07 02:36:26;;;;;;;7.20;4.50;;;;;;;9.33;49.14;100654.02;106369;1276;137506;-82
2022/09/07 02:38:58;;;;;;;6.80;4.10;;;;;;;9.30;49.33;100651.83;105856;1276;108437;-83
2022/09/07 02:41:36;;;;;;;9.00;4.40;;;;;;;9.26;49.25;100647.06;107151;1276;137638;-83
2022/09/07 02:44:12;;;;;;;10.70;4.60;;;;;;;9.22;49.42;100647.48;106326;1276;96687;-82
2022/09/07 02:47:05;;;;;;;11.20;4.70;;;;;;;9.20;49.53;100643.22;105950;1275;138220;-81
2022/09/07 02:49:56;;;;;;;8.70;4.00;;;;;;;9.16;49.54;100642.23;107532;1274;109113;-81
2022/09/07 02:52:39;;;;;;;7.80;4.20;;;;;;;9.12;49.79;100638.33;107378;1276;137751;-81
2022/09/07 02:55:25;;;;;;;9.10;4.20;;;;;;;9.08;49.71;100636.48;107530;1275;95036;-81
2022/09/07 02:58:09;;;;;;;6.20;3.80;;;;;;;9.05;50.07;100635.69;107232;1276;94849;-80
2022/09/07 03:00:48;;;;;;;7.40;4.10;;;;;;;9.03;50.02;100632.95;105910;1276;111423;-82
2022/09/07 03:03:29;;;;;;;8.70;4.50;;;;;;;9.01;50.06;100633.00;105938;1276;108275;-80
2022/09/07 03:06:04;;;;;;;7.20;4.00;;;;;;;8.98;50.29;100633.23;105765;1275;137776;-82
2022/09/07 03:08:41;;;;;;;6.30;4.10;;;;;;;8.96;50.31;100633.59;106029;1275;96491;-81
2022/09/07 03:11:13;;;;;;;;;;;;;;;8.95;50.25;100631.88;105920;1276;137869;-81
2022/09/07 03:13:44;;;;;;;7.80;4.10;;;;;;;8.94;50.22;100629.82;105981;1275;110973;-79
2022/09/07 03:16:17;;;;;;;7.30;4.10;;;;;;;8.93;50.23;100631.77;106932;1275;137492;-83
2022/09/07 03:18:49;;;;;;;10.60;4.10;;;;;;;8.92;50.40;100626.73;107516;1275;107571;-82
2022/09/07 03:21:21;;;;;;;7.10;4.00;;;;;;;8.91;50.53;100624.69;107524;1273;95854;-83
2022/09/07 03:23:53;;;;;;;7.60;4.20;;;;;;;8.89;50.56;100624.72;105971;1276;137391;-82
2022/09/07 03:26:26;;;;;;;8.90;3.90;;;;;;;8.89;50.70;100630.80;105937;1276;111602;-82
2022/09/07 03:28:58;;;;;;;7.60;4.30;;;;;;;8.88;50.54;100632.55;105814;1276;139248;-82
2022/09/07 03:31:31;;;;;;;6.10;3.70;;;;;;;8.87;50.78;100636.21;106530;1276;109115;-81
2022/09/07 03:34:04;;;;;;;9.00;4.30;;;;;;;8.85;50.77;100633.65;105979;1276;97833;-83
2022/09/07 03:36:36;;;;;;;7.80;4.10;;;;;;;8.84;50.68;100633.50;105983;1276;97797;-78
2022/09/07 03:39:08;;;;;;;7.50;4.10;;;;;;;8.84;50.78;100632.29;105979;1276;111235;-81
2022/09/07 03:41:41;;;;;;;7.00;4.00;;;;;;;8.83;50.90;100634.91;105828;1276;138028;-79
2022/09/07 03:44:13;;;;;;;7.80;3.80;;;;;;;8.83;50.94;100634.23;105901;1276;108667;-81
2022/09/07 03:46:44;;;;;;;6.40;3.50;;;;;;;8.81;50.84;100634.77;105832;1276;139400;-82
2022/09/07 03:49:17;;;;;;;10.00;4.10;;;;;;;8.80;50.93;100636.69;105977;1276;97712;-82
2022/09/07 03:51:49;;;;;;;11.70;3.80;;;;;;;8.78;50.96;100634.80;105953;1276;110798;-81
2022/09/07 03:54:22;;;;;;;7.00;3.90;;;;;;;8.77;51.14;100635.70;105784;1276;139433;-80
2022/09/07 03:56:54;;;;;;;9.50;3.60;;;;;;;8.74;50.99;100634.89;105882;1276;108906;-80
2022/09/07 03:59:26;;;;;;;7.70;4.20;;;;;;;8.72;51.09;100636.33;105778;1275;137552;-79
2022/09/07 04:01:58;;;;;;;8.00;3.60;;;;;;;8.71;51.18;100634.78;105853;1278;97881;-80
2022/09/07 04:04:30;;;;;;;6.90;3.60;;;;;;;8.69;51.07;100634.30;105729;1275;137576;-81
2022/09/07 04:07:02;;;;;;;8.50;4.10;;;;;;;8.69;51.20;100632.23;105944;1275;107607;-80
2022/09/07 04:09:34;;;;;;;7.10;3.90;;;;;;;8.69;51.22;100627.19;105969;1276;108312;-79
2022/09/07 04:12:06;;;;;;;12.10;3.70;;;;;;;8.68;51.15;100629.63;105731;1276;137842;-80
2022/09/07 04:14:38;;;;;;;9.80;4.00;;;;;;;8.69;51.25;100633.95;105935;1276;98726;-81
2022/09/07 04:17:13;;;;;;;7.00;4.10;;;;;;;8.77;51.14;100635.87;105744;1276;138492;-81
2022/09/07 04:19:45;;;;;;;9.30;3.80;;;;;;;8.93;51.28;100632.98;105980;1276;105634;-81
2022/09/07 04:22:17;;;;;;;9.10;3.90;;;;;;;9.12;51.09;100633.64;105692;1276;138018;-81
2022/09/07 04:24:49;;;;;;;8.20;3.90;;;;;;;9.32;50.81;100633.05;105918;1276;98428;-82
2022/09/07 04:27:20;;;;;;;8.80;3.80;;;;;;;9.60;50.56;100636.45;105900;1275;97852;-82
2022/09/07 04:29:52;;;;;;;10.50;4.00;;;;;;;9.91;50.19;100635.91;105724;1276;137790;-81
2022/09/07 04:32:24;;;;;;;10.70;4.10;;;;;;;10.28;49.83;100634.02;105852;1276;108650;-81
2022/09/07 04:34:56;;;;;;;7.80;4.00;;;;;;;10.71;49.47;100632.58;105739;1276;138187;-81
2022/09/07 04:37:28;;;;;;;9.30;4.00;;;;;;;11.17;48.94;100631.30;105808;1276;97933;-83
2022/09/07 04:40:00;;;;;;;11.10;4.20;;;;;;;11.66;48.10;100634.39;105857;1276;97801;-82
2022/09/07 04:42:32;;;;;;;11.50;3.90;;;;;;;12.24;47.62;100632.73;105727;1276;137854;-81
2022/09/07 04:45:05;;;;;;;9.90;4.10;;;;;;;12.95;46.65;100625.79;105943;1276;108952;-81
2022/09/07 04:47:39;;;;;;;9.80;3.80;;;;;;;13.62;45.54;100623.64;105726;1276;138236;-82
2022/09/07 04:50:11;;;;;;;8.20;3.80;;;;;;;14.35;44.73;100619.48;105807;1276;97853;-82
2022/09/07 04:52:43;;;;;;;10.90;4.10;;;;;;;14.96;43.32;100624.55;105826;1275;138312;-78
2022/09/07 04:55:16;;;;;;;9.00;4.00;;;;;;;15.43;42.38;100624.36;105827;1276;111769;-79
2022/09/07 04:57:50;;;;;;;11.20;4.10;;;;;;;15.95;41.50;100627.91;105787;1276;108946;-81
2022/09/07 05:00:22;;;;;;;8.50;3.90;;;;;;;16.47;40.71;100619.54;105730;1276;137941;-79
2022/09/07 05:02:54;;;;;;;14.30;4.60;;;;;;;16.95;39.79;100617.75;105922;1275;97864;-80
2022/09/07 05:05:25;;;;;;;11.30;4.50;;;;;;;17.45;39.09;100621.42;105849;1276;137811;-81
2022/09/07 05:07:57;;;;;;;11.90;4.10;;;;;;;17.87;38.15;100624.58;105959;1275;112631;-82
2022/09/07 05:10:29;;;;;;;12.60;4.60;;;;;;;18.30;37.40;100623.67;105900;1276;138378;-80
2022/09/07 05:13:02;;;;;;;12.10;4.10;;;;;;;18.74;36.65;100624.45;106021;1276;109102;-79
2022/09/07 05:15:33;;;;;;;11.50;4.00;;;;;;;19.19;36.10;100624.34;105870;1276;97916;-79
2022/09/07 05:18:05;;;;;;;9.50;3.60;;;;;;;19.67;35.30;100624.48;105858;1274;137855;-85
2022/09/07 05:20:37;;;;;;;14.90;3.90;;;;;;;20.17;34.43;100625.82;105996;1276;112437;-79
2022/09/07 05:23:09;;;;;;;13.80;4.10;;;;;;;20.61;33.73;100619.90;105896;1276;138194;-77
2022/09/07 05:25:46;;;;;;;9.40;3.90;;;;;;;21.09;33.02;100617.15;105913;1275;108992;-78
2022/09/07 05:28:18;;;;;;;15.10;4.00;;;;;;;21.53;32.29;100614.52;105843;1274;138270;-81
2022/09/07 05:30:50;;;;;;;14.10;3.50;;;;;;;21.96;31.58;100617.23;106013;1276;97857;-75
2022/09/07 05:33:47;;;;;;;12.50;3.50;;;;;;;22.45;30.77;100617.51;105945;1273;112471;-75
2022/09/07 05:36:39;;;;;;;13.70;3.70;;;;;;;22.79;30.37;100611.12;105945;1276;107927;-78
2022/09/07 05:39:11;;;;;;;6.40;3.30;;;;;;;23.06;29.87;100613.30;105937;1276;108912;-77
2022/09/07 05:41:43;;;;;;;15.90;3.60;;;;;;;23.40;29.06;100617.67;105751;1275;137962;-80
2022/09/07 05:44:15;;;;;;;12.10;3.50;;;;;;;23.80;28.71;100619.11;105981;1276;97842;-79
2022/09/07 05:47:08;;;;;;;11.40;3.30;;;;;;;24.10;28.29;100614.66;105840;1276;138010;-79
2022/09/07 05:49:40;;;;;;;9.70;3.30;;;;;;;24.29;27.83;100607.80;105851;1276;109288;-77
2022/09/07 05:52:12;;;;;;;14.50;3.60;;;;;;;24.60;27.44;100604.80;105816;1276;138305;-73
2022/09/07 05:54:44;;;;;;;8.00;3.10;;;;;;;24.91;27.15;100602.34;105922;1276;97801;-77
2022/09/07 05:57:16;;;;;;;8.80;2.80;;;;;;;25.22;26.55;100611.05;105839;1276;97840;-83
2022/09/07 05:59:48;;;;;;;14.40;3.50;;;;;;;25.48;26.10;100608.70;105922;1276;137938;-79
2022/09/07 06:02:20;;;;;;;10.70;3.40;;;;;;;25.73;25.35;100609.04;105927;1276;108978;-79
2022/09/07 06:04:52;;;;;;;15.10;3.20;;;;;;;26.02;25.30;100603.20;105740;1276;138205;-80
2022/09/07 06:07:24;;;;;;;10.20;2.90;;;;;;;26.32;25.03;100597.94;105880;1276;96629;-78
2022/09/07 06:09:56;;;;;;;7.30;3.10;;;;;;;26.67;24.79;100597.28;106039;1276;97851;-76
2022/09/07 06:12:48;;;;;;;9.90;3.10;;;;;;;27.18;23.90;100595.15;105892;1275;111234;-78
2022/09/07 06:15:20;;;;;;;14.00;3.10;;;;;;;27.56;23.74;100594.84;105862;1276;110191;-79
2022/09/07 06:17:53;;;;;;;7.30;2.80;;;;;;;28.15;23.54;100594.17;104283;1277;1900727;-84
2022/09/07 06:20:25;;;;;;;7.90;3.20;;;;;;;28.88;22.77;100586.17;105838;1276;97837;-77
2022/09/07 06:22:56;;;;;;;10.70;3.00;;;;;;;29.47;22.27;100582.88;106728;1275;137961;-81
2022/09/07 06:25:28;;;;;;;9.40;3.30;;;;;;;30.00;21.63;100580.59;107440;1276;112349;-81
2022/09/07 06:28:01;;;;;;;9.80;3.00;;;;;;;30.38;21.44;100570.80;107044;1276;108997;-79
2022/09/07 06:30:33;;;;;;;9.60;2.60;;;;;;;30.85;20.88;100564.14;105564;1276;137879;-80
2022/09/07 06:33:05;;;;;;;8.90;3.00;;;;;;;31.35;20.33;100564.41;106874;1276;96465;-78
2022/09/07 06:35:37;;;;;;;8.80;2.50;;;;;;;31.68;19.71;100566.95;107363;1275;138911;-77
2022/09/07 06:38:09;;;;;;;7.40;2.40;;;;;;;32.03;19.66;100563.11;107507;1277;111439;-76
2022/09/07 06:40:42;;;;;;;6.60;2.70;;;;;;;32.18;19.18;100558.70;107325;1276;138652;-77
2022/09/07 06:43:14;;;;;;;6.50;2.30;;;;;;;32.11;19.24;100559.38;107283;1275;107842;-76
2022/09/07 06:45:53;;;;;;;7.90;2.50;;;;;;;32.08;19.29;100558.56;105897;1277;97854;-78
2022/09/07 06:48:26;;;;;;;6.30;2.60;;;;;;;32.00;19.51;100555.65;105833;1276;139296;-77
2022/09/07 06:51:00;;;;;;;7.60;2.40;;;;;;;32.18;19.17;100554.73;105908;1278;113210;-78
2022/09/07 06:53:34;;;;;;;7.80;2.70;;;;;;;32.19;18.84;100557.14;105732;1274;138007;-77
2022/09/07 06:56:12;;;;;;;10.50;3.00;;;;;;;32.11;18.67;100554.08;106896;1274;107367;-76
2022/09/07 06:58:45;;;;;;;8.30;2.50;;;;;;;32.38;18.64;100555.77;107394;1275;138578;-76
2022/09/07 07:01:19;;;;;;;6.00;1.90;;;;;;;32.78;18.22;100557.52;107422;1275;97318;-76
2022/09/07 07:03:53;;;;;;;10.10;2.20;;;;;;;33.18;17.81;100558.95;107463;1276;111632;-75
2022/09/07 07:06:32;;;;;;;8.00;2.30;;;;;;;33.37;17.13;100563.86;107343;1274;138138;-74
2022/09/07 07:09:05;;;;;;;8.00;2.20;;;;;;;33.18;16.50;100549.83;106446;1276;109212;-76
2022/09/07 07:11:37;;;;;;;5.00;2.10;;;;;;;33.23;16.58;100565.63;105795;1277;137843;-76
2022/09/07 07:14:11;;;;;;;2.50;1.80;;;;;;;32.98;16.02;100578.55;105933;1276;97845;-75
2022/09/07 07:16:43;;;;;;;6.30;2.00;;;;;;;32.56;16.71;100577.30;105760;1274;138076;-77
2022/09/07 07:19:16;;;;;;;3.90;1.80;;;;;;;32.53;15.99;100583.80;105841;1275;108941;-76
2022/09/07 07:21:48;;;;;;;8.40;2.10;;;;;;;32.38;15.83;100577.09;105917;1275;109159;-77
2022/09/07 07:24:39;;;;;;;5.10;1.80;;;;;;;32.23;15.91;100588.64;105989;1274;97938;-76
2022/09/07 07:27:11;;;;;;;11.30;2.10;;;;;;;31.94;15.70;100601.40;105713;1277;97866;-75
2022/09/07 07:29:44;;;;;;;7.30;2.20;;;;;;;31.58;15.81;100604.83;105777;1277;137811;-75
2022/09/07 07:32:16;;;;;;;7.20;2.00;;;;;;;31.37;16.21;100606.88;105786;1275;107791;-72
2022/09/07 07:34:49;;;;;;;5.30;1.60;;;;;;;31.29;16.13;100612.35;105848;1278;139160;-73
2022/09/07 07:37:21;;;;;;;10.40;2.30;;;;;;;30.97;16.15;100611.08;105898;1276;97893;-76
2022/09/07 07:39:59;;;;;;;6.30;1.30;;;;;;;30.55;16.09;100618.60;105833;1277;97957;-77
2022/09/07 07:42:50;;;;;;;2.40;1.50;;;;;;;29.93;16.14;100615.14;105827;1276;112511;-77
2022/09/07 07:45:22;;;;;;;6.20;1.50;;;;;;;29.40;16.16;100616.40;105905;1277;108859;-71
2022/09/07 07:48:14;;;;;;;8.50;1.60;;;;;;;28.75;16.74;100606.30;107092;1274;139026;-76
2022/09/07 07:50:56;;;;;;;9.50;1.70;;;;;;;28.66;17.20;100602.42;107090;1276;96210;-72
2022/09/07 07:53:29;;;;;;;3.50;1.60;;;;;;;28.89;17.36;100602.54;105744;1274;137745;-74
2022/09/07 07:56:17;;;;;;;9.20;1.90;;;;;;;29.16;17.26;100597.95;105848;1277;112530;-75
2022/09/07 07:58:51;;;;;;;3.20;1.20;;;;;;;29.22;16.30;100591.96;105752;1278;138081;-72
2022/09/07 08:01:23;;;;;;;4.80;1.30;;;;;;;29.07;16.38;100596.73;106127;1276;108342;-70
2022/09/07 08:03:55;;;;;;;3.20;1.10;;;;;;;29.06;16.71;100593.40;107028;1276;96083;-74
2022/09/07 08:06:27;;;;;;;7.60;1.00;;;;;;;29.05;16.93;100587.63;105572;1277;137966;-72
2022/09/07 08:08:59;;;;;;;6.60;1.40;;;;;;;28.93;17.10;100587.54;105774;1276;111469;-72
2022/09/07 08:11:31;;;;;;;5.40;1.20;;;;;;;28.74;16.65;100579.17;105753;1276;138170;-72
2022/09/07 08:14:05;;;;;;;7.10;1.20;;;;;;;28.54;16.80;100578.78;105797;1274;109272;-73
2022/09/07 08:16:37;;;;;;;2.80;1.00;;;;;;;28.38;16.98;100585.56;105728;1276;138084;-68
2022/09/07 08:19:09;;;;;;;3.90;1.10;;;;;;;28.13;17.12;100586.36;105660;1275;96337;-76
2022/09/07 08:21:41;;;;;;;9.10;1.50;;;;;;;28.00;16.97;100576.34;105713;1276;112479;-72
2022/09/07 08:24:13;;;;;;;5.00;1.10;;;;;;;27.78;16.85;100574.61;105680;1275;138485;-81
2022/09/07 08:26:47;;;;;;;10.00;1.40;;;;;;;27.55;17.20;100577.98;105848;1275;108963;-74
2022/09/07 08:29:19;;;;;;;3.20;1.20;;;;;;;27.47;17.20;100579.27;105630;1276;138539;-78
2022/09/07 08:31:54;;;;;;;3.90;1.10;;;;;;;27.37;17.32;100582.19;105704;1275;98008;-72
2022/09/07 08:34:26;;;;;;;2.40;1.10;;;;;;;27.08;17.43;100574.92;105781;1275;138663;-70
2022/09/07 08:36:58;;;;;;;4.90;1.40;;;;;;;26.88;18.19;100565.73;105846;1276;109519;-83
2022/09/07 08:39:30;;;;;;;9.40;1.40;;;;;;;26.85;18.45;100561.15;105856;1276;109241;-82
2022/09/07 08:42:26;;;;;;;5.30;1.30;;;;;;;26.98;19.25;100561.87;105790;1276;138722;-80
2022/09/07 08:45:02;;;;;;;7.10;1.60;;;;;;;27.42;19.06;100565.11;107085;1276;96221;-78
2022/09/07 08:47:41;;;;;;;5.20;1.30;;;;;;;27.57;18.35;100564.77;107320;1276;138298;-80
2022/09/07 08:50:18;;;;;;;5.40;1.20;;;;;;;27.47;18.18;100563.09;107486;1276;108036;-77
2022/09/07 08:52:55;;;;;;;3.20;1.70;;;;;;;27.51;18.69;100557.41;107334;1274;138427;-77
2022/09/07 08:55:32;;;;;;;5.40;1.20;;;;;;;27.64;18.65;100545.25;107489;1276;96457;-81
2022/09/07 08:58:10;;;;;;;7.20;1.40;;;;;;;27.94;19.03;100542.46;107477;1276;96455;-79
2022/09/07 09:01:06;;;;;;;7.60;1.30;;;;;;;27.92;17.88;100549.13;105807;1276;112557;-78
2022/09/07 09:03:59;;;;;;;2.80;1.00;;;;;;;27.71;18.18;100548.89;105794;1277;108079;-78
2022/09/07 09:07:03;;;;;;;4.50;0.90;;;;;;;27.81;17.75;100551.52;105776;1276;108677;-82
2022/09/07 09:09:54;;;;;;;5.50;1.10;;;;;;;27.70;18.10;100545.11;105811;1277;97843;-79
2022/09/07 09:12:33;;;;;;;3.40;0.80;;;;;;;27.68;17.99;100537.27;105521;1277;138000;-77
2022/09/07 09:15:20;;;;;;;2.80;0.80;;;;;;;27.59;17.92;100534.13;105611;1281;112635;-78
2022/09/07 09:18:02;;;;;;;6.70;1.00;;;;;;;27.34;17.64;100532.73;105608;1276;138193;-78
2022/09/07 09:20:41;;;;;;;2.60;1.20;;;;;;;27.19;17.80;100523.80;106918;1276;107860;-76
2022/09/07 09:23:15;;;;;;;7.60;1.10;;;;;;;26.93;17.88;100538.65;105625;1276;137824;-80
2022/09/07 09:25:53;;;;;;;2.20;0.90;;;;;;;26.63;18.22;100518.91;105859;1276;97821;-77
2022/09/07 09:28:25;;;;;;;3.60;0.90;;;;;;;26.65;18.60;100523.74;105577;1276;138001;-77
2022/09/07 09:31:03;;;;;;;3.50;0.90;;;;;;;26.62;18.62;100512.06;105804;1276;109608;-77
2022/09/07 09:33:36;;;;;;;9.50;1.40;;;;;;;26.86;18.65;100512.89;105817;1276;109076;-79
2022/09/07 09:36:31;;;;;;;3.60;0.90;;;;;;;26.94;18.16;100512.84;105742;1277;137947;-76
2022/09/07 09:39:26;;;;;;;4.60;1.00;;;;;;;26.56;17.99;100509.53;105701;1277;97978;-75
2022/09/07 09:42:02;;;;;;;2.00;0.90;;;;;;;26.06;18.22;100516.20;105582;1276;138707;-82
2022/09/07 09:44:37;;;;;;;5.10;0.80;;;;;;;25.59;18.51;100520.36;105667;1277;109279;-75
2022/09/07 09:47:25;;;;;;;2.90;1.00;;;;;;;25.19;18.84;100513.62;107199;1277;138507;-76
2022/09/07 09:50:05;;;;;;;1.80;1.00;;;;;;;24.89;19.31;100509.70;106859;1277;96549;-77
2022/09/07 09:52:38;;;;;;;2.00;0.80;;;;;;;24.84;19.91;100505.51;105519;1277;138224;-77
2022/09/07 09:55:30;;;;;;;3.60;1.00;;;;;;;25.11;20.12;100499.36;105660;1277;112514;-78
2022/09/07 09:58:25;;;;;;;3.00;1.00;;;;;;;25.44;19.83;100496.77;106132;1277;108763;-78
2022/09/07 10:01:25;;;;;;;5.60;1.20;;;;;;;25.53;19.39;100495.45;105635;1276;107862;-78
2022/09/07 10:04:17;;;;;;;2.10;1.10;;;;;;;25.55;19.57;100493.59;105615;1278;97863;-77
2022/09/07 10:06:55;;;;;;;3.30;1.00;;;;;;;25.63;18.99;100495.75;105882;1276;97935;-78
2022/09/07 10:09:33;;;;;;;3.90;0.90;;;;;;;25.51;18.69;100494.89;105829;1276;112150;-78
2022/09/07 10:12:22;;;;;;;7.30;1.00;;;;;;;25.29;18.55;100492.77;105686;1276;139069;-83
2022/09/07 10:14:55;;;;;;;3.10;1.00;;;;;;;25.16;19.19;100485.44;105715;1277;109506;-81
2022/09/07 10:17:33;;;;;;;3.50;0.80;;;;;;;25.35;19.64;100487.41;105627;1276;138440;-77
2022/09/07 10:20:33;;;;;;;10.90;1.10;;;;;;;25.24;18.96;100489.53;105809;1276;97865;-80
2022/09/07 10:23:18;;;;;;;2.80;1.00;;;;;;;24.88;19.54;100485.69;105612;1276;137955;-80
2022/09/07 10:25:51;;;;;;;5.10;1.20;;;;;;;24.76;19.92;100484.35;105736;1276;107881;-78
2022/09/07 10:28:24;;;;;;;5.30;1.30;;;;;;;24.86;20.40;100479.33;105628;1276;138114;-78
2022/09/07 10:31:21;;;;;;;4.40;1.20;;;;;;;25.02;20.52;100477.56;105873;1275;100003;-81
2022/09/07 10:33:59;;;;;;;2.30;0.90;;;;;;;25.27;20.14;100470.20;105925;1274;97949;-79
2022/09/07 10:37:02;;;;;;;3.00;0.90;;;;;;;25.32;19.65;100468.64;105913;1275;112494;-77
2022/09/07 10:39:37;;;;;;;3.30;0.90;;;;;;;25.22;19.67;100460.78;105923;1276;108914;-80
2022/09/07 10:42:24;;;;;;;6.20;1.20;;;;;;;25.18;19.57;100458.02;105630;1276;137842;-81
2022/09/07 10:45:06;;;;;;;3.20;0.80;;;;;;;25.09;19.94;100458.11;105771;1276;97868;-81
2022/09/07 10:47:48;;;;;;;4.40;1.30;;;;;;;24.98;19.77;100458.18;105685;1276;137903;-77
2022/09/07 10:50:29;;;;;;;4.50;1.00;;;;;;;24.83;19.67;100457.73;105753;1276;112687;-76
2022/09/07 10:53:22;;;;;;;8.50;0.90;;;;;;;24.49;19.89;100448.64;105678;1276;137862;-76
2022/09/07 10:56:14;;;;;;;3.20;1.00;;;;;;;24.24;20.20;100453.27;106327;1275;108935;-78
2022/09/07 10:58:57;;;;;;;8.10;1.30;;;;;;;24.18;20.58;100449.34;105698;1276;138386;-77
2022/09/07 11:01:43;;;;;;;2.00;1.10;;;;;;;24.33;21.00;100452.99;105926;1276;97760;-81
2022/09/07 11:04:37;;;;;;;3.40;1.10;;;;;;;24.45;20.27;100449.84;105724;1274;138093;-81
2022/09/07 11:07:22;;;;;;;2.50;1.00;;;;;;;24.38;20.13;100451.67;105831;1276;108903;-79
2022/09/07 11:10:00;;;;;;;2.90;0.80;;;;;;;24.14;19.95;100446.50;105827;1276;108774;-78
2022/09/07 11:12:36;;;;;;;2.10;0.90;;;;;;;24.06;20.34;100446.23;105744;1275;137935;-79
2022/09/07 11:15:18;;;;;;;4.70;1.10;;;;;;;24.09;20.50;100448.30;105922;1276;97917;-77
2022/09/07 11:17:56;;;;;;;2.90;0.90;;;;;;;24.14;20.12;100458.36;105661;1276;138172;-77
2022/09/07 11:20:32;;;;;;;1.80;0.90;;;;;;;23.93;20.12;100451.78;105753;1276;109020;-79
2022/09/07 11:23:14;;;;;;;3.20;1.10;;;;;;;23.85;20.37;100447.70;105569;1276;138054;-75
2022/09/07 11:25:57;;;;;;;2.90;1.00;;;;;;;24.00;21.18;100442.85;105688;1275;97843;-75
2022/09/07 11:28:36;;;;;;;2.00;1.00;;;;;;;24.24;20.83;100439.43;105570;1276;138961;-77
2022/09/07 11:31:19;;;;;;;3.90;1.10;;;;;;;24.31;20.61;100437.63;105719;1276;111434;-78
2022/09/07 11:34:01;;;;;;;9.00;1.20;;;;;;;24.33;20.20;100435.94;105816;1275;109468;-80
2022/09/07 11:37:01;;;;;;;10.10;1.30;;;;;;;23.90;19.87;100437.65;105694;1276;108917;-78
2022/09/07 11:39:39;;;;;;;6.70;1.10;;;;;;;23.54;20.35;100431.45;105838;1276;97964;-79
2022/09/07 11:42:17;;;;;;;4.40;1.00;;;;;;;23.43;20.55;100425.27;105584;1275;139406;-77
2022/09/07 11:45:19;;;;;;;5.00;1.20;;;;;;;23.33;20.51;100421.68;105779;1275;114030;-77
2022/09/07 11:47:58;;;;;;;3.80;1.20;;;;;;;23.30;21.11;100414.15;105547;1275;138007;-77
2022/09/07 11:50:34;;;;;;;2.70;1.10;;;;;;;23.43;21.17;100418.56;105715;1275;108562;-73
2022/09/07 11:53:13;;;;;;;2.40;1.00;;;;;;;23.31;20.68;100418.69;105625;1276;139638;-70
2022/09/07 11:55:49;;;;;;;3.10;1.10;;;;;;;23.09;21.11;100417.13;105752;1276;97840;-71
2022/09/07 11:58:37;;;;;;;2.20;0.90;;;;;;;23.07;21.06;100411.09;105601;1275;137912;-71